createdAt,value
2018-08-13T00:00:02.995Z,0.00
2018-08-13T00:01:02.993Z,0.00
2018-08-13T00:02:02.964Z,0.00
2018-08-13T00:03:02.952Z,0.00
2018-08-13T00:04:02.932Z,0.00
2018-08-13T00:05:02.929Z,0.00
2018-08-13T00:06:02.936Z,0.00
2018-08-13T00:07:02.908Z,0.00
2018-08-13T00:08:02.891Z,0.00
2018-08-13T00:09:02.884Z,0.00
2018-08-13T00:10:02.862Z,0.00
2018-08-13T00:11:02.873Z,0.00
2018-08-13T00:12:02.854Z,0.00
2018-08-13T00:13:02.826Z,0.00
2018-08-13T00:14:02.863Z,0.00
2018-08-13T00:15:02.812Z,0.00
2018-08-13T00:16:02.814Z,0.00
2018-08-13T00:17:02.788Z,0.00
2018-08-13T00:18:02.769Z,0.00
2018-08-13T00:19:02.755Z,0.00
2018-08-13T00:20:02.754Z,0.00
2018-08-13T00:21:02.762Z,0.00
2018-08-13T00:22:02.723Z,0.00
2018-08-13T00:23:02.708Z,0.00
2018-08-13T00:24:02.703Z,0.00
2018-08-13T00:25:02.695Z,0.00
2018-08-13T00:26:02.702Z,0.00
2018-08-13T00:27:02.673Z,0.00
2018-08-13T00:28:02.654Z,0.00
2018-08-13T00:29:02.644Z,0.00
2018-08-13T00:30:02.629Z,0.00
2018-08-13T00:31:02.647Z,0.00
2018-08-13T00:32:02.608Z,0.00
2018-08-13T00:33:02.592Z,0.00
2018-08-13T00:34:02.590Z,0.00
2018-08-13T00:35:02.575Z,0.00
2018-08-13T00:36:02.586Z,0.00
2018-08-13T00:37:02.559Z,0.00
2018-08-13T00:38:02.534Z,0.00
2018-08-13T00:39:02.526Z,0.00
2018-08-13T00:40:02.511Z,0.00
2018-08-13T00:41:02.531Z,0.00
2018-08-13T00:42:02.497Z,0.00
2018-08-13T00:43:02.482Z,0.00
2018-08-13T00:44:02.466Z,0.00
2018-08-13T00:45:02.459Z,0.00
2018-08-13T00:46:02.465Z,0.00
2018-08-13T00:47:02.431Z,0.00
2018-08-13T00:48:02.424Z,0.00
2018-08-13T00:49:02.414Z,0.00
2018-08-13T00:50:02.397Z,0.00
2018-08-13T00:51:02.457Z,0.00
2018-08-13T00:52:02.372Z,0.00
2018-08-13T00:53:02.357Z,0.00
2018-08-13T00:54:02.356Z,0.00
2018-08-13T00:55:02.364Z,0.00
2018-08-13T00:56:02.354Z,0.00
2018-08-13T00:57:02.310Z,0.00
2018-08-13T00:58:02.301Z,0.00
2018-08-13T00:59:02.302Z,0.00
2018-08-13T01:00:02.287Z,0.00
2018-08-13T01:01:02.299Z,0.00
2018-08-13T01:02:02.262Z,0.00
2018-08-13T01:03:02.245Z,0.00
2018-08-13T01:04:02.238Z,0.00
2018-08-13T01:05:02.217Z,0.00
2018-08-13T01:06:02.214Z,0.00
2018-08-13T01:07:02.226Z,0.00
2018-08-13T01:08:02.183Z,0.00
2018-08-13T01:09:02.180Z,0.00
2018-08-13T01:10:02.158Z,0.00
2018-08-13T01:11:02.151Z,0.00
2018-08-13T01:12:02.157Z,0.00
2018-08-13T01:13:02.131Z,0.00
2018-08-13T01:14:02.119Z,0.00
2018-08-13T01:15:02.107Z,0.00
2018-08-13T01:16:02.093Z,0.00
2018-08-13T01:17:02.108Z,0.00
2018-08-13T01:18:02.080Z,0.00
2018-08-13T01:19:02.064Z,0.00
2018-08-13T01:20:02.050Z,0.00
2018-08-13T01:21:02.041Z,0.00
2018-08-13T01:22:02.043Z,0.00
2018-08-13T01:23:02.009Z,0.00
2018-08-13T01:24:02.011Z,0.00
2018-08-13T01:25:01.986Z,0.00
2018-08-13T01:26:01.990Z,0.00
2018-08-13T01:27:01.991Z,0.00
2018-08-13T01:28:01.960Z,0.00
2018-08-13T01:29:01.947Z,0.00
2018-08-13T01:30:01.928Z,0.00
2018-08-13T01:31:01.918Z,0.00
2018-08-13T01:32:01.938Z,0.00
2018-08-13T01:33:01.895Z,0.00
2018-08-13T01:34:01.881Z,0.00
2018-08-13T01:35:01.869Z,0.00
2018-08-13T01:36:01.866Z,0.00
2018-08-13T01:37:01.870Z,0.00
2018-08-13T01:38:01.841Z,0.00
2018-08-13T01:39:01.824Z,0.00
2018-08-13T01:40:01.841Z,0.00
2018-08-13T01:41:01.800Z,0.00
2018-08-13T01:42:01.791Z,0.00
2018-08-13T01:43:01.777Z,0.00
2018-08-13T01:44:01.771Z,0.00
2018-08-13T01:45:01.777Z,0.00
2018-08-13T01:46:01.746Z,0.00
2018-08-13T01:47:01.727Z,0.00
2018-08-13T01:48:01.756Z,0.00
2018-08-13T01:49:01.704Z,0.00
2018-08-13T01:50:01.726Z,0.00
2018-08-13T01:51:01.684Z,0.00
2018-08-13T01:52:01.674Z,0.00
2018-08-13T01:53:01.675Z,0.00
2018-08-13T01:54:01.646Z,0.00
2018-08-13T01:55:01.659Z,0.00
2018-08-13T01:56:01.632Z,0.00
2018-08-13T01:57:01.616Z,0.00
2018-08-13T01:58:01.604Z,0.00
2018-08-13T01:59:01.593Z,0.00
2018-08-13T02:00:01.601Z,0.00
2018-08-13T02:01:01.565Z,0.00
2018-08-13T02:02:01.561Z,0.00
2018-08-13T02:03:01.549Z,0.00
2018-08-13T02:04:01.548Z,0.00
2018-08-13T02:05:01.545Z,0.00
2018-08-13T02:06:01.510Z,0.00
2018-08-13T02:07:01.498Z,0.00
2018-08-13T02:08:01.491Z,0.00
2018-08-13T02:09:01.481Z,0.00
2018-08-13T02:10:01.491Z,0.00
2018-08-13T02:11:01.450Z,0.00
2018-08-13T02:12:01.446Z,0.00
2018-08-13T02:13:01.432Z,0.00
2018-08-13T02:14:01.426Z,0.00
2018-08-13T02:15:01.425Z,0.00
2018-08-13T02:16:01.400Z,0.00
2018-08-13T02:17:01.386Z,0.00
2018-08-13T02:18:01.377Z,0.00
2018-08-13T02:19:01.378Z,0.00
2018-08-13T02:20:01.351Z,0.00
2018-08-13T02:21:01.358Z,0.00
2018-08-13T02:22:01.327Z,0.00
2018-08-13T02:23:01.316Z,0.00
2018-08-13T02:24:01.307Z,0.00
2018-08-13T02:25:01.290Z,0.00
2018-08-13T02:26:01.305Z,0.00
2018-08-13T02:27:01.271Z,0.00
2018-08-13T02:28:01.253Z,0.00
2018-08-13T02:29:01.242Z,0.00
2018-08-13T02:30:01.235Z,0.00
2018-08-13T02:31:01.241Z,0.00
2018-08-13T02:32:01.210Z,0.00
2018-08-13T02:33:01.196Z,0.00
2018-08-13T02:34:01.186Z,0.00
2018-08-13T02:35:01.176Z,0.00
2018-08-13T02:36:01.189Z,0.00
2018-08-13T02:37:01.146Z,0.00
2018-08-13T02:38:01.139Z,0.00
2018-08-13T02:39:01.188Z,0.00
2018-08-13T02:40:01.120Z,0.00
2018-08-13T02:41:01.132Z,0.00
2018-08-13T02:42:01.089Z,0.00
2018-08-13T02:43:01.087Z,0.00
2018-08-13T02:44:01.074Z,0.00
2018-08-13T02:45:01.070Z,0.00
2018-08-13T02:46:01.067Z,0.00
2018-08-13T02:47:01.031Z,0.00
2018-08-13T02:48:01.027Z,0.00
2018-08-13T02:49:01.006Z,0.00
2018-08-13T02:50:00.998Z,0.00
2018-08-13T02:51:01.017Z,0.00
2018-08-13T02:52:00.974Z,0.00
2018-08-13T02:53:00.969Z,0.00
2018-08-13T02:54:00.948Z,0.00
2018-08-13T02:55:00.942Z,0.00
2018-08-13T02:56:00.957Z,0.00
2018-08-13T02:57:00.919Z,0.00
2018-08-13T02:58:00.956Z,0.00
2018-08-13T02:59:00.899Z,0.00
2018-08-13T03:00:00.882Z,0.00
2018-08-13T03:01:00.898Z,0.00
2018-08-13T03:02:00.856Z,0.00
2018-08-13T03:03:00.845Z,0.00
2018-08-13T03:04:00.836Z,0.00
2018-08-13T03:05:00.828Z,0.00
2018-08-13T03:06:00.836Z,0.00
2018-08-13T03:07:00.803Z,0.00
2018-08-13T03:08:00.789Z,0.00
2018-08-13T03:09:00.774Z,0.00
2018-08-13T03:10:00.769Z,0.00
2018-08-13T03:11:00.773Z,0.00
2018-08-13T03:12:00.745Z,0.00
2018-08-13T03:13:00.728Z,0.00
2018-08-13T03:14:00.720Z,0.00
2018-08-13T03:15:00.700Z,0.00
2018-08-13T03:16:00.723Z,0.00
2018-08-13T03:17:00.678Z,0.00
2018-08-13T03:18:00.677Z,0.00
2018-08-13T03:19:00.662Z,0.00
2018-08-13T03:20:00.653Z,0.00
2018-08-13T03:21:00.662Z,0.00
2018-08-13T03:22:00.621Z,0.00
2018-08-13T03:23:00.616Z,0.00
2018-08-13T03:24:00.600Z,0.00
2018-08-13T03:25:00.595Z,0.00
2018-08-13T03:26:00.602Z,0.00
2018-08-13T03:27:00.561Z,0.00
2018-08-13T03:28:00.558Z,0.00
2018-08-13T03:29:00.544Z,0.00
2018-08-13T03:30:00.538Z,0.00
2018-08-13T03:31:00.541Z,0.00
2018-08-13T03:32:00.509Z,0.00
2018-08-13T03:33:00.500Z,0.00
2018-08-13T03:34:00.479Z,0.00
2018-08-13T03:35:00.480Z,0.00
2018-08-13T03:36:00.487Z,0.00
2018-08-13T03:37:00.452Z,4.00
2018-08-13T03:38:00.444Z,4.00
2018-08-13T03:39:00.427Z,4.00
2018-08-13T03:40:00.413Z,0.00
2018-08-13T03:41:00.421Z,4.00
2018-08-13T03:42:00.387Z,4.00
2018-08-13T03:43:00.379Z,8.00
2018-08-13T03:44:00.370Z,4.00
2018-08-13T03:45:00.360Z,8.00
2018-08-13T03:46:00.363Z,8.00
2018-08-13T03:47:00.328Z,12.00
2018-08-13T03:48:00.325Z,12.00
2018-08-13T03:49:00.312Z,16.00
2018-08-13T03:50:00.299Z,16.00
2018-08-13T03:51:00.304Z,20.00
2018-08-13T03:52:00.279Z,20.00
2018-08-13T03:53:00.261Z,24.00
2018-08-13T03:54:00.249Z,28.00
2018-08-13T03:55:00.244Z,32.00
2018-08-13T03:56:00.253Z,36.00
2018-08-13T03:57:00.223Z,44.00
2018-08-13T03:58:00.209Z,52.00
2018-08-13T03:59:00.189Z,64.00
2018-08-13T04:00:00.193Z,76.00
2018-08-13T04:01:00.189Z,84.00
2018-08-13T04:02:00.163Z,92.00
2018-08-13T04:03:00.146Z,100.00
2018-08-13T04:04:00.137Z,112.00
2018-08-13T04:05:00.123Z,128.00
2018-08-13T04:06:00.137Z,140.00
2018-08-13T04:07:00.100Z,148.00
2018-08-13T04:08:00.091Z,148.00
2018-08-13T04:09:00.082Z,136.00
2018-08-13T04:10:00.076Z,120.00
2018-08-13T04:11:00.082Z,128.00
2018-08-13T04:12:00.048Z,156.00
2018-08-13T04:13:00.142Z,208.00
2018-08-13T04:14:00.024Z,252.00
2018-08-13T04:15:00.009Z,272.00
2018-08-13T04:16:00.022Z,276.00
2018-08-13T04:16:59.983Z,276.00
2018-08-13T04:17:59.975Z,284.00
2018-08-13T04:18:59.963Z,312.00
2018-08-13T04:19:59.953Z,340.00
2018-08-13T04:20:59.955Z,360.00
2018-08-13T04:21:59.931Z,372.00
2018-08-13T04:22:59.912Z,392.00
2018-08-13T04:23:59.908Z,432.00
2018-08-13T04:24:59.887Z,468.00
2018-08-13T04:25:59.908Z,476.00
2018-08-13T04:26:59.870Z,468.00
2018-08-13T04:27:59.858Z,476.00
2018-08-13T04:28:59.844Z,500.00
2018-08-13T04:29:59.836Z,504.00
2018-08-13T04:30:59.848Z,484.00
2018-08-13T04:31:59.810Z,496.00
2018-08-13T04:32:59.797Z,556.00
2018-08-13T04:33:59.794Z,664.00
2018-08-13T04:34:59.782Z,764.00
2018-08-13T04:35:59.785Z,812.00
2018-08-13T04:36:59.752Z,848.00
2018-08-13T04:37:59.744Z,832.00
2018-08-13T04:38:59.731Z,752.00
2018-08-13T04:39:59.719Z,716.00
2018-08-13T04:40:59.739Z,704.00
2018-08-13T04:41:59.692Z,680.00
2018-08-13T04:42:59.680Z,644.00
2018-08-13T04:43:59.679Z,612.00
2018-08-13T04:44:59.663Z,628.00
2018-08-13T04:45:59.672Z,676.00
2018-08-13T04:46:59.649Z,748.00
2018-08-13T04:47:59.623Z,796.00
2018-08-13T04:48:59.623Z,828.00
2018-08-13T04:49:59.605Z,852.00
2018-08-13T04:50:59.613Z,888.00
2018-08-13T04:51:59.648Z,928.00
2018-08-13T04:52:59.574Z,940.00
2018-08-13T04:53:59.560Z,912.00
2018-08-13T04:54:59.553Z,884.00
2018-08-13T04:55:59.560Z,876.00
2018-08-13T04:56:59.522Z,880.00
2018-08-13T04:57:59.513Z,888.00
2018-08-13T04:58:59.553Z,888.00
2018-08-13T04:59:59.493Z,860.00
2018-08-13T05:00:59.503Z,852.00
2018-08-13T05:01:59.471Z,860.00
2018-08-13T05:02:59.484Z,924.00
2018-08-13T05:03:59.445Z,1040.00
2018-08-13T05:04:59.437Z,1200.00
2018-08-13T05:05:59.449Z,1400.00
2018-08-13T05:06:59.411Z,1588.00
2018-08-13T05:07:59.405Z,1752.00
2018-08-13T05:08:59.390Z,1896.00
2018-08-13T05:09:59.380Z,2012.00
2018-08-13T05:10:59.392Z,2120.00
2018-08-13T05:11:59.359Z,2236.00
2018-08-13T05:12:59.349Z,2352.00
2018-08-13T05:13:59.335Z,2460.00
2018-08-13T05:14:59.321Z,2568.00
2018-08-13T05:15:59.331Z,2700.00
2018-08-13T05:16:59.300Z,2888.00
2018-08-13T05:17:59.285Z,3112.00
2018-08-13T05:18:59.277Z,3324.00
2018-08-13T05:19:59.268Z,3464.00
2018-08-13T05:20:59.275Z,3600.00
2018-08-13T05:21:59.244Z,3764.00
2018-08-13T05:22:59.226Z,3904.00
2018-08-13T05:23:59.265Z,4004.00
2018-08-13T05:24:59.203Z,3968.00
2018-08-13T05:25:59.226Z,3864.00
2018-08-13T05:26:59.181Z,3772.00
2018-08-13T05:27:59.179Z,3728.00
2018-08-13T05:28:59.159Z,3664.00
2018-08-13T05:29:59.183Z,3576.00
2018-08-13T05:30:59.235Z,3560.00
2018-08-13T05:31:59.175Z,3684.00
2018-08-13T05:32:59.141Z,3940.00
2018-08-13T05:33:59.132Z,4312.00
2018-08-13T05:34:59.113Z,4752.00
2018-08-13T05:35:59.113Z,5060.00
2018-08-13T05:36:59.072Z,5028.00
2018-08-13T05:37:59.059Z,4748.00
2018-08-13T05:38:59.047Z,4380.00
2018-08-13T05:39:59.111Z,4132.00
2018-08-13T05:40:59.053Z,4176.00
2018-08-13T05:41:59.014Z,4420.00
2018-08-13T05:42:59.001Z,4584.00
2018-08-13T05:43:58.996Z,4600.00
2018-08-13T05:44:59.028Z,4596.00
2018-08-13T05:45:58.988Z,4520.00
2018-08-13T05:46:58.951Z,4432.00
2018-08-13T05:47:58.953Z,4424.00
2018-08-13T05:48:58.936Z,4608.00
2018-08-13T05:49:58.923Z,5020.00
2018-08-13T05:50:59.068Z,5520.00
2018-08-13T05:51:58.896Z,5968.00
2018-08-13T05:52:58.938Z,6224.00
2018-08-13T05:53:58.875Z,6220.00
2018-08-13T05:54:58.864Z,5924.00
2018-08-13T05:55:58.885Z,5548.00
2018-08-13T05:56:59.001Z,5216.00
2018-08-13T05:57:58.837Z,4832.00
2018-08-13T05:58:58.822Z,4584.00
2018-08-13T05:59:58.808Z,4408.00
2018-08-13T06:00:58.816Z,4144.00
2018-08-13T06:01:58.784Z,3760.00
2018-08-13T06:02:58.821Z,3352.00
2018-08-13T06:03:58.765Z,3024.00
2018-08-13T06:04:58.751Z,2860.00
2018-08-13T06:05:58.766Z,2812.00
2018-08-13T06:06:58.727Z,2824.00
2018-08-13T06:07:58.723Z,2916.00
2018-08-13T06:08:58.704Z,2932.00
2018-08-13T06:09:58.699Z,2960.00
2018-08-13T06:10:58.712Z,3040.00
2018-08-13T06:11:58.670Z,3140.00
2018-08-13T06:12:58.667Z,3284.00
2018-08-13T06:13:58.647Z,3332.00
2018-08-13T06:14:58.638Z,3220.00
2018-08-13T06:15:58.655Z,3020.00
2018-08-13T06:16:58.621Z,2320.00
2018-08-13T06:17:58.627Z,2060.00
2018-08-13T06:18:58.596Z,1776.00
2018-08-13T06:19:58.582Z,1864.00
2018-08-13T06:20:58.595Z,2308.00
2018-08-13T06:21:58.559Z,3088.00
2018-08-13T06:22:58.674Z,3604.00
2018-08-13T06:23:58.542Z,3456.00
2018-08-13T06:24:58.544Z,3140.00
2018-08-13T06:25:58.538Z,2992.00
2018-08-13T06:26:58.500Z,2896.00
2018-08-13T06:27:58.492Z,2816.00
2018-08-13T06:28:58.488Z,2836.00
2018-08-13T06:29:58.471Z,2948.00
2018-08-13T06:30:58.483Z,3052.00
2018-08-13T06:31:58.448Z,3060.00
2018-08-13T06:32:58.433Z,3028.00
2018-08-13T06:33:58.480Z,2820.00
2018-08-13T06:34:58.414Z,2528.00
2018-08-13T06:35:58.421Z,2352.00
2018-08-13T06:36:58.385Z,2244.00
2018-08-13T06:37:58.376Z,2280.00
2018-08-13T06:38:58.364Z,2316.00
2018-08-13T06:39:58.365Z,2256.00
2018-08-13T06:40:58.365Z,2280.00
2018-08-13T06:41:58.333Z,2388.00
2018-08-13T06:42:58.316Z,2376.00
2018-08-13T06:43:58.314Z,2504.00
2018-08-13T06:44:58.293Z,2708.00
2018-08-13T06:45:58.313Z,2948.00
2018-08-13T06:46:58.293Z,3192.00
2018-08-13T06:47:58.266Z,3364.00
2018-08-13T06:48:58.251Z,3440.00
2018-08-13T06:49:58.237Z,3504.00
2018-08-13T06:50:58.255Z,3652.00
2018-08-13T06:51:58.209Z,3844.00
2018-08-13T06:52:58.209Z,4136.00
2018-08-13T06:53:58.195Z,4744.00
2018-08-13T06:54:58.175Z,5652.00
2018-08-13T06:55:58.195Z,6692.00
2018-08-13T06:56:58.153Z,7552.00
2018-08-13T06:57:58.150Z,8144.00
2018-08-13T06:58:58.133Z,8608.00
2018-08-13T06:59:58.123Z,8992.00
2018-08-13T07:00:58.131Z,9292.00
2018-08-13T07:01:58.100Z,9572.00
2018-08-13T07:02:58.086Z,9960.00
2018-08-13T07:03:58.077Z,10424.00
2018-08-13T07:04:58.067Z,10724.00
2018-08-13T07:05:58.081Z,11124.00
2018-08-13T07:06:58.040Z,11276.00
2018-08-13T07:07:58.033Z,11008.00
2018-08-13T07:08:58.015Z,10704.00
2018-08-13T07:09:58.011Z,10604.00
2018-08-13T07:10:58.018Z,10324.00
2018-08-13T07:11:57.985Z,10004.00
2018-08-13T07:12:57.980Z,9924.00
2018-08-13T07:13:57.957Z,10216.00
2018-08-13T07:14:57.944Z,10972.00
2018-08-13T07:15:57.966Z,12092.00
2018-08-13T07:16:57.928Z,13308.00
2018-08-13T07:17:57.914Z,14144.00
2018-08-13T07:18:57.899Z,14480.00
2018-08-13T07:19:57.897Z,14136.00
2018-08-13T07:20:57.905Z,13564.00
2018-08-13T07:21:57.920Z,13248.00
2018-08-13T07:22:57.866Z,14012.00
2018-08-13T07:23:57.847Z,15244.00
2018-08-13T07:24:57.846Z,16240.00
2018-08-13T07:25:57.843Z,16440.00
2018-08-13T07:26:57.806Z,15640.00
2018-08-13T07:27:57.830Z,13716.00
2018-08-13T07:28:57.792Z,12192.00
2018-08-13T07:29:57.775Z,11408.00
2018-08-13T07:30:57.787Z,11072.00
2018-08-13T07:31:57.756Z,10636.00
2018-08-13T07:32:57.746Z,10348.00
2018-08-13T07:33:57.728Z,10264.00
2018-08-13T07:34:57.732Z,10272.00
2018-08-13T07:35:57.735Z,10448.00
2018-08-13T07:36:57.694Z,10412.00
2018-08-13T07:37:57.684Z,10520.00
2018-08-13T07:38:57.706Z,10356.00
2018-08-13T07:39:57.671Z,9108.00
2018-08-13T07:40:57.677Z,8716.00
2018-08-13T07:41:57.636Z,8948.00
2018-08-13T07:42:57.635Z,9488.00
2018-08-13T07:43:57.610Z,9844.00
2018-08-13T07:44:57.608Z,9872.00
2018-08-13T07:45:57.609Z,9384.00
2018-08-13T07:46:57.581Z,8472.00
2018-08-13T07:47:57.567Z,7860.00
2018-08-13T07:48:57.562Z,7304.00
2018-08-13T07:49:57.540Z,7032.00
2018-08-13T07:50:57.552Z,6736.00
2018-08-13T07:51:57.546Z,6368.00
2018-08-13T07:52:57.514Z,5892.00
2018-08-13T07:53:57.498Z,5584.00
2018-08-13T07:54:57.498Z,5392.00
2018-08-13T07:55:57.500Z,5356.00
2018-08-13T07:56:57.470Z,5056.00
2018-08-13T07:57:57.454Z,4648.00
2018-08-13T07:58:57.436Z,4608.00
2018-08-13T07:59:57.439Z,4576.00
2018-08-13T08:00:57.451Z,4428.00
2018-08-13T08:01:57.406Z,4240.00
2018-08-13T08:02:57.396Z,4380.00
2018-08-13T08:03:57.385Z,4792.00
2018-08-13T08:04:57.377Z,5100.00
2018-08-13T08:05:57.381Z,5432.00
2018-08-13T08:06:57.349Z,5916.00
2018-08-13T08:07:57.347Z,6548.00
2018-08-13T08:08:57.338Z,6848.00
2018-08-13T08:09:57.318Z,6608.00
2018-08-13T08:10:57.329Z,6588.00
2018-08-13T08:11:57.297Z,7168.00
2018-08-13T08:12:57.289Z,7992.00
2018-08-13T08:13:57.275Z,8644.00
2018-08-13T08:14:57.263Z,8808.00
2018-08-13T08:15:57.266Z,8548.00
2018-08-13T08:16:57.234Z,8872.00
2018-08-13T08:17:57.226Z,10336.00
2018-08-13T08:18:57.212Z,11196.00
2018-08-13T08:19:57.201Z,9876.00
2018-08-13T08:20:57.206Z,8288.00
2018-08-13T08:21:57.239Z,8000.00
2018-08-13T08:22:57.160Z,8336.00
2018-08-13T08:23:57.174Z,8228.00
2018-08-13T08:24:57.140Z,8012.00
2018-08-13T08:25:57.157Z,7724.00
2018-08-13T08:26:57.123Z,6960.00
2018-08-13T08:27:57.109Z,6184.00
2018-08-13T08:28:57.101Z,5976.00
2018-08-13T08:29:57.079Z,6424.00
2018-08-13T08:30:57.100Z,6604.00
2018-08-13T08:31:57.060Z,6132.00
2018-08-13T08:32:57.053Z,6072.00
2018-08-13T08:33:57.042Z,6176.00
2018-08-13T08:34:57.027Z,6044.00
2018-08-13T08:35:57.041Z,6304.00
2018-08-13T08:36:57.001Z,6468.00
2018-08-13T08:37:56.991Z,5872.00
2018-08-13T08:38:56.987Z,5012.00
2018-08-13T08:39:56.963Z,4420.00
2018-08-13T08:40:57.005Z,4312.00
2018-08-13T08:41:56.951Z,4244.00
2018-08-13T08:42:56.928Z,4228.00
2018-08-13T08:43:56.925Z,4532.00
2018-08-13T08:44:56.910Z,4932.00
2018-08-13T08:45:56.943Z,5616.00
2018-08-13T08:46:56.884Z,6564.00
2018-08-13T08:47:56.874Z,7424.00
2018-08-13T08:48:56.861Z,7904.00
2018-08-13T08:49:56.852Z,8104.00
2018-08-13T08:50:56.865Z,8248.00
2018-08-13T08:51:56.825Z,8276.00
2018-08-13T08:52:56.816Z,7932.00
2018-08-13T08:53:56.803Z,7676.00
2018-08-13T08:54:56.794Z,7624.00
2018-08-13T08:55:56.808Z,7872.00
2018-08-13T08:56:56.770Z,8524.00
2018-08-13T08:57:56.755Z,8980.00
2018-08-13T08:58:56.750Z,9236.00
2018-08-13T08:59:56.730Z,9964.00
2018-08-13T09:00:56.763Z,10696.00
2018-08-13T09:01:56.708Z,11064.00
2018-08-13T09:02:56.696Z,10728.00
2018-08-13T09:03:56.692Z,10204.00
2018-08-13T09:04:56.674Z,9928.00
2018-08-13T09:05:56.717Z,9396.00
2018-08-13T09:06:56.652Z,8932.00
2018-08-13T09:07:56.643Z,8624.00
2018-08-13T09:08:56.630Z,8564.00
2018-08-13T09:09:56.619Z,9060.00
2018-08-13T09:10:56.630Z,9632.00
2018-08-13T09:11:56.596Z,10132.00
2018-08-13T09:12:56.582Z,9436.00
2018-08-13T09:13:56.575Z,8780.00
2018-08-13T09:14:56.555Z,9072.00
2018-08-13T09:15:56.575Z,9644.00
2018-08-13T09:16:56.535Z,10508.00
2018-08-13T09:17:56.530Z,11012.00
2018-08-13T09:18:56.557Z,11124.00
2018-08-13T09:19:56.505Z,10892.00
2018-08-13T09:20:56.527Z,11372.00
2018-08-13T09:21:56.473Z,11976.00
2018-08-13T09:22:56.462Z,12728.00
2018-08-13T09:23:56.461Z,13692.00
2018-08-13T09:24:56.447Z,14528.00
2018-08-13T09:25:56.429Z,16000.00
2018-08-13T09:26:56.439Z,18496.00
2018-08-13T09:27:56.414Z,22336.00
2018-08-13T09:28:56.403Z,30560.00
2018-08-13T09:29:56.385Z,36768.00
2018-08-13T09:30:56.383Z,39712.00
2018-08-13T09:31:56.388Z,57632.00
2018-08-13T09:32:56.355Z,75840.00
2018-08-13T09:33:56.338Z,53248.00
2018-08-13T09:34:56.330Z,44672.00
2018-08-13T09:35:56.317Z,36896.00
2018-08-13T09:36:56.328Z,37824.00
2018-08-13T09:37:56.300Z,40064.00
2018-08-13T09:38:56.283Z,44032.00
2018-08-13T09:39:56.307Z,40288.00
2018-08-13T09:40:56.266Z,54784.00
2018-08-13T09:41:56.284Z,44608.00
2018-08-13T09:42:56.242Z,35712.00
2018-08-13T09:43:56.222Z,36672.00
2018-08-13T09:44:56.215Z,38624.00
2018-08-13T09:45:56.201Z,41792.00
2018-08-13T09:46:56.188Z,45920.00
2018-08-13T09:47:56.210Z,54048.00
2018-08-13T09:48:56.171Z,54144.00
2018-08-13T09:49:56.172Z,43360.00
2018-08-13T09:50:56.151Z,54368.00
2018-08-13T09:51:56.132Z,41920.00
2018-08-13T09:52:56.158Z,40448.00
2018-08-13T09:53:56.235Z,33792.00
2018-08-13T09:54:56.101Z,33088.00
2018-08-13T09:55:56.111Z,33376.00
2018-08-13T09:56:56.078Z,32448.00
2018-08-13T09:57:56.101Z,31968.00
2018-08-13T09:58:56.055Z,31008.00
2018-08-13T09:59:56.051Z,30272.00
2018-08-13T10:00:56.039Z,29568.00
2018-08-13T10:01:56.024Z,29408.00
2018-08-13T10:02:56.048Z,29856.00
2018-08-13T10:03:56.004Z,30816.00
2018-08-13T10:04:55.995Z,32160.00
2018-08-13T10:05:55.975Z,34112.00
2018-08-13T10:06:55.964Z,36736.00
2018-08-13T10:07:55.993Z,39552.00
2018-08-13T10:08:55.941Z,88096.00
2018-08-13T10:09:55.940Z,43392.00
2018-08-13T10:10:55.955Z,47168.00
2018-08-13T10:11:55.915Z,43360.00
2018-08-13T10:12:55.904Z,39552.00
2018-08-13T10:13:55.915Z,34144.00
2018-08-13T10:14:55.886Z,29632.00
2018-08-13T10:15:55.873Z,26240.00
2018-08-13T10:16:55.858Z,24640.00
2018-08-13T10:17:55.895Z,24576.00
2018-08-13T10:18:55.862Z,26400.00
2018-08-13T10:19:55.828Z,26624.00
2018-08-13T10:20:55.809Z,27936.00
2018-08-13T10:21:55.807Z,27488.00
2018-08-13T10:22:55.794Z,27200.00
2018-08-13T10:23:55.797Z,27232.00
2018-08-13T10:24:55.767Z,26912.00
2018-08-13T10:25:55.757Z,26784.00
2018-08-13T10:26:55.746Z,27808.00
2018-08-13T10:27:55.732Z,29408.00
2018-08-13T10:28:55.739Z,31552.00
2018-08-13T10:29:55.718Z,33568.00
2018-08-13T10:30:55.695Z,30912.00
2018-08-13T10:31:55.691Z,28160.00
2018-08-13T10:32:55.679Z,28224.00
2018-08-13T10:33:55.687Z,29472.00
2018-08-13T10:34:55.652Z,32256.00
2018-08-13T10:35:55.643Z,32352.00
2018-08-13T10:36:55.634Z,30304.00
2018-08-13T10:37:55.614Z,28480.00
2018-08-13T10:38:55.629Z,29152.00
2018-08-13T10:39:55.596Z,29760.00
2018-08-13T10:40:55.581Z,29184.00
2018-08-13T10:41:55.574Z,28736.00
2018-08-13T10:42:55.556Z,29728.00
2018-08-13T10:43:55.576Z,30624.00
2018-08-13T10:44:55.582Z,33248.00
2018-08-13T10:45:55.530Z,36704.00
2018-08-13T10:46:55.516Z,68544.00
2018-08-13T10:47:55.509Z,114240.00
2018-08-13T10:48:55.518Z,79488.00
2018-08-13T10:49:55.478Z,104928.00
2018-08-13T10:50:55.474Z,64000.00
2018-08-13T10:51:55.460Z,60544.00
2018-08-13T10:52:55.458Z,34432.00
2018-08-13T10:53:55.470Z,28448.00
2018-08-13T10:54:55.429Z,38144.00
2018-08-13T10:55:55.414Z,38208.00
2018-08-13T10:56:55.399Z,51040.00
2018-08-13T10:57:55.402Z,73504.00
2018-08-13T10:58:55.412Z,81632.00
2018-08-13T10:59:55.370Z,39584.00
2018-08-13T11:00:55.359Z,30304.00
2018-08-13T11:01:55.356Z,25472.00
2018-08-13T11:02:55.435Z,34208.00
2018-08-13T11:03:55.354Z,52192.00
2018-08-13T11:04:55.322Z,128032.00
2018-08-13T11:05:55.301Z,37216.00
2018-08-13T11:06:55.294Z,37216.00
2018-08-13T11:07:55.297Z,58528.00
2018-08-13T11:08:55.300Z,44384.00
2018-08-13T11:09:55.267Z,36864.00
2018-08-13T11:10:55.250Z,35584.00
2018-08-13T11:11:55.244Z,33888.00
2018-08-13T11:12:55.239Z,33312.00
2018-08-13T11:13:55.245Z,35968.00
2018-08-13T11:14:55.203Z,31616.00
2018-08-13T11:15:55.204Z,25120.00
2018-08-13T11:16:55.180Z,21792.00
2018-08-13T11:17:55.182Z,20832.00
2018-08-13T11:18:55.181Z,21408.00
2018-08-13T11:19:55.155Z,19712.00
2018-08-13T11:20:55.144Z,15504.00
2018-08-13T11:21:55.134Z,12904.00
2018-08-13T11:22:55.128Z,11392.00
2018-08-13T11:23:55.130Z,10404.00
2018-08-13T11:24:55.094Z,10328.00
2018-08-13T11:25:55.085Z,11832.00
2018-08-13T11:26:55.074Z,13472.00
2018-08-13T11:27:55.058Z,13456.00
2018-08-13T11:28:55.074Z,12080.00
2018-08-13T11:29:55.034Z,10840.00
2018-08-13T11:30:55.031Z,9628.00
2018-08-13T11:31:55.011Z,9116.00
2018-08-13T11:32:55.009Z,8352.00
2018-08-13T11:33:55.010Z,8836.00
2018-08-13T11:34:55.016Z,10120.00
2018-08-13T11:35:54.964Z,11520.00
2018-08-13T11:36:54.963Z,12688.00
2018-08-13T11:37:54.948Z,14580.00
2018-08-13T11:38:54.954Z,18368.00
2018-08-13T11:39:54.921Z,22560.00
2018-08-13T11:40:54.908Z,25152.00
2018-08-13T11:41:54.906Z,27264.00
2018-08-13T11:42:54.887Z,30880.00
2018-08-13T11:43:54.902Z,32736.00
2018-08-13T11:44:54.864Z,34176.00
2018-08-13T11:45:54.856Z,34240.00
2018-08-13T11:46:54.840Z,34816.00
2018-08-13T11:47:54.839Z,35040.00
2018-08-13T11:48:54.842Z,33632.00
2018-08-13T11:49:54.815Z,33984.00
2018-08-13T11:50:54.801Z,84736.00
2018-08-13T11:51:54.782Z,55392.00
2018-08-13T11:52:54.770Z,34016.00
2018-08-13T11:53:54.791Z,29632.00
2018-08-13T11:54:54.753Z,32704.00
2018-08-13T11:55:54.738Z,67840.00
2018-08-13T11:56:54.737Z,56544.00
2018-08-13T11:57:54.714Z,63520.00
2018-08-13T11:58:54.734Z,49856.00
2018-08-13T11:59:54.696Z,41056.00
2018-08-13T12:00:54.702Z,43648.00
2018-08-13T12:01:54.691Z,43296.00
2018-08-13T12:02:54.668Z,32864.00
2018-08-13T12:03:54.670Z,27744.00
2018-08-13T12:04:54.641Z,25728.00
2018-08-13T12:05:54.632Z,28384.00
2018-08-13T12:06:54.623Z,34016.00
2018-08-13T12:07:54.608Z,36032.00
2018-08-13T12:08:54.621Z,36448.00
2018-08-13T12:09:54.585Z,37504.00
2018-08-13T12:10:54.573Z,41472.00
2018-08-13T12:11:54.560Z,45920.00
2018-08-13T12:12:54.546Z,49376.00
2018-08-13T12:13:54.559Z,66336.00
2018-08-13T12:14:54.528Z,53120.00
2018-08-13T12:15:54.517Z,50368.00
2018-08-13T12:16:54.504Z,52448.00
2018-08-13T12:17:54.502Z,68448.00
2018-08-13T12:18:54.505Z,59328.00
2018-08-13T12:19:54.476Z,62400.00
2018-08-13T12:20:54.456Z,59712.00
2018-08-13T12:21:54.454Z,123200.00